createdAt,value
2023-04-17T00:01:05.472Z,27.30
2023-04-17T00:03:32.188Z,28.70
2023-04-17T00:05:58.874Z,29.00
2023-04-17T00:08:25.317Z,29.60
2023-04-17T00:11:04.149Z,28.27
2023-04-17T00:13:34.007Z,30.50
2023-04-17T00:16:00.518Z,29.77
2023-04-17T00:18:27.049Z,27.90
2023-04-17T00:20:53.682Z,29.10
2023-04-17T00:23:20.269Z,30.57
2023-04-17T00:25:46.736Z,28.03
2023-04-17T00:28:13.195Z,27.67
2023-04-17T00:30:39.648Z,27.83
2023-04-17T00:33:06.163Z,28.83
2023-04-17T00:35:32.584Z,29.83
2023-04-17T00:37:58.976Z,30.53
2023-04-17T00:40:25.459Z,29.50
2023-04-17T00:42:56.028Z,31.87
2023-04-17T00:45:22.548Z,30.30
2023-04-17T00:47:49.971Z,29.90
2023-04-17T00:50:16.703Z,29.60
2023-04-17T00:52:44.623Z,32.77
2023-04-17T00:55:11.470Z,31.77
2023-04-17T00:57:37.937Z,31.47
2023-04-17T01:00:05.836Z,31.80
2023-04-17T01:02:32.572Z,32.00
2023-04-17T01:04:59.107Z,32.77
2023-04-17T01:07:26.212Z,31.37
2023-04-17T01:09:53.577Z,33.53
2023-04-17T01:12:22.562Z,34.30
2023-04-17T01:14:53.622Z,33.77
2023-04-17T01:17:21.328Z,34.63
2023-04-17T01:19:49.141Z,35.17
2023-04-17T01:22:16.551Z,35.30
2023-04-17T01:24:43.350Z,34.13
2023-04-17T01:27:09.885Z,36.00
2023-04-17T01:29:36.326Z,36.27
2023-04-17T01:32:02.780Z,35.83
2023-04-17T01:34:29.208Z,37.77
2023-04-17T01:36:55.632Z,37.27
2023-04-17T01:39:22.097Z,38.27
2023-04-17T01:41:48.576Z,40.93
2023-04-17T01:44:15.050Z,38.77
2023-04-17T01:46:41.492Z,38.30
2023-04-17T01:49:07.957Z,40.53
2023-04-17T01:51:34.435Z,40.50
2023-04-17T01:54:00.894Z,38.03
2023-04-17T01:56:27.310Z,37.90
2023-04-17T01:58:54.241Z,37.37
2023-04-17T02:01:21.021Z,37.27
2023-04-17T02:03:47.752Z,38.87
2023-04-17T02:06:15.631Z,37.47
2023-04-17T02:08:42.345Z,36.43
2023-04-17T02:11:10.117Z,36.00
2023-04-17T02:13:36.817Z,36.50
2023-04-17T02:16:03.439Z,37.60
2023-04-17T02:18:29.915Z,37.30
2023-04-17T02:20:56.326Z,35.63
2023-04-17T02:23:22.776Z,36.70
2023-04-17T02:25:49.208Z,37.17
2023-04-17T02:28:15.773Z,35.63
2023-04-17T02:30:42.470Z,33.87
2023-04-17T02:33:08.953Z,35.47
2023-04-17T02:35:35.695Z,35.00
2023-04-17T02:38:02.131Z,37.17
2023-04-17T02:40:28.618Z,35.70
2023-04-17T02:42:55.052Z,34.10
2023-04-17T02:45:21.619Z,34.80
2023-04-17T02:47:48.553Z,32.77
2023-04-17T02:50:15.031Z,34.43
2023-04-17T02:52:41.537Z,32.63
2023-04-17T02:55:09.662Z,33.60
2023-04-17T02:57:36.148Z,31.73
2023-04-17T03:00:05.453Z,32.27
2023-04-17T03:02:32.138Z,31.90
2023-04-17T03:05:02.018Z,33.60
2023-04-17T03:07:28.527Z,33.80
2023-04-17T03:09:57.468Z,34.70
2023-04-17T03:12:23.991Z,34.03
2023-04-17T03:14:50.786Z,32.40
2023-04-17T03:17:17.805Z,33.87
2023-04-17T03:19:44.221Z,32.43
2023-04-17T03:22:13.170Z,33.40
2023-04-17T03:24:41.208Z,33.70
2023-04-17T03:27:07.749Z,34.40
2023-04-17T03:29:34.289Z,33.57
2023-04-17T03:32:00.884Z,33.97
2023-04-17T03:34:28.987Z,34.60
2023-04-17T03:36:55.818Z,34.43
2023-04-17T03:39:22.333Z,34.43
2023-04-17T03:41:48.816Z,33.83
2023-04-17T03:44:15.528Z,35.30
2023-04-17T03:46:41.980Z,34.40
2023-04-17T03:49:08.467Z,36.07
2023-04-17T03:51:34.860Z,32.93
2023-04-17T03:54:01.295Z,35.70
2023-04-17T03:56:27.719Z,33.27
2023-04-17T03:58:54.156Z,32.80
2023-04-17T04:01:22.324Z,32.33
2023-04-17T04:03:49.125Z,34.83
2023-04-17T04:06:20.218Z,33.30
2023-04-17T04:08:46.763Z,36.17
2023-04-17T04:11:13.464Z,32.97
2023-04-17T04:13:39.995Z,32.70
2023-04-17T04:16:06.940Z,31.50
2023-04-17T04:18:33.511Z,31.10
2023-04-17T04:21:00.065Z,29.67
2023-04-17T04:23:27.814Z,28.63
2023-04-17T04:25:57.867Z,26.93
2023-04-17T04:28:24.416Z,25.53
2023-04-17T04:30:53.579Z,25.60
2023-04-17T04:33:20.852Z,24.97
2023-04-17T04:35:48.313Z,26.00
2023-04-17T04:38:17.248Z,25.10
2023-04-17T04:40:49.871Z,27.17
2023-04-17T04:43:16.488Z,24.70
2023-04-17T04:45:43.019Z,26.23
2023-04-17T04:48:09.580Z,26.00
2023-04-17T04:50:36.082Z,25.10
2023-04-17T04:53:02.557Z,25.13
2023-04-17T04:55:30.667Z,29.30
2023-04-17T04:57:57.590Z,30.47
2023-04-17T05:00:24.791Z,30.63
2023-04-17T05:02:51.376Z,34.83
2023-04-17T05:05:17.888Z,31.73
2023-04-17T05:07:44.377Z,28.73
2023-04-17T05:10:10.886Z,30.23
2023-04-17T05:12:37.330Z,31.43
2023-04-17T05:15:04.113Z,29.13
2023-04-17T05:17:30.829Z,27.80
2023-04-17T05:19:57.289Z,29.80
2023-04-17T05:22:23.873Z,27.90
2023-04-17T05:24:50.504Z,27.37
2023-04-17T05:27:16.993Z,28.87
2023-04-17T05:29:43.463Z,25.87
2023-04-17T05:32:10.016Z,27.20
2023-04-17T05:34:36.441Z,27.13
2023-04-17T05:37:03.361Z,27.80
2023-04-17T05:39:29.926Z,28.80
2023-04-17T05:41:56.466Z,28.80
2023-04-17T05:44:22.962Z,26.40
2023-04-17T05:46:49.390Z,25.90
2023-04-17T05:49:15.998Z,28.40
2023-04-17T05:51:42.495Z,28.10
2023-04-17T05:54:08.943Z,26.03
2023-04-17T05:56:35.671Z,26.40
2023-04-17T05:59:02.154Z,24.40
2023-04-17T06:01:29.745Z,25.10
2023-04-17T06:03:56.635Z,25.40
2023-04-17T06:06:23.349Z,24.93
2023-04-17T06:08:49.842Z,25.33
2023-04-17T06:11:17.218Z,24.67
2023-04-17T06:13:43.737Z,27.00
2023-04-17T06:16:10.863Z,25.80
2023-04-17T06:18:37.576Z,25.97
2023-04-17T06:21:04.665Z,25.10
2023-04-17T06:23:31.184Z,25.57
2023-04-17T06:25:57.823Z,26.50
2023-04-17T06:28:24.368Z,26.33
2023-04-17T06:30:51.155Z,25.57
2023-04-17T06:33:17.725Z,27.83
2023-04-17T06:35:44.183Z,26.17
2023-04-17T06:38:10.726Z,26.47
2023-04-17T06:40:37.909Z,27.07
2023-04-17T06:43:04.952Z,26.10
2023-04-17T06:45:33.590Z,25.70
2023-04-17T06:48:00.175Z,25.43
2023-04-17T06:50:27.043Z,26.10
2023-04-17T06:52:53.540Z,25.63
2023-04-17T06:55:20.077Z,25.03
2023-04-17T06:57:46.553Z,24.53
2023-04-17T07:00:13.750Z,24.53
2023-04-17T07:02:40.415Z,26.70
2023-04-17T07:05:07.743Z,25.33
2023-04-17T07:07:35.836Z,26.33
2023-04-17T07:10:03.760Z,27.03
2023-04-17T07:12:30.474Z,24.30
2023-04-17T07:14:56.959Z,24.17
2023-04-17T07:17:23.503Z,25.80
2023-04-17T07:19:50.001Z,25.33
2023-04-17T07:22:16.509Z,24.80
2023-04-17T07:24:42.994Z,25.13
2023-04-17T07:27:09.643Z,25.10
2023-04-17T07:29:36.210Z,24.30
2023-04-17T07:32:03.209Z,24.60
2023-04-17T07:34:31.284Z,24.50
2023-04-17T07:36:57.804Z,25.10
2023-04-17T07:39:26.917Z,23.20
2023-04-17T07:41:53.394Z,22.60
2023-04-17T07:44:19.913Z,24.03
2023-04-17T07:46:46.450Z,24.07
2023-04-17T07:49:13.190Z,25.07
2023-04-17T07:51:41.221Z,24.80
2023-04-17T07:54:07.813Z,24.00
2023-04-17T07:56:34.649Z,24.37
2023-04-17T07:59:01.168Z,26.27
2023-04-17T08:01:27.721Z,25.40
2023-04-17T08:03:55.482Z,25.57
2023-04-17T08:06:23.512Z,26.63
2023-04-17T08:08:50.049Z,26.50
2023-04-17T08:11:16.533Z,31.70
2023-04-17T08:13:43.028Z,27.20
2023-04-17T08:16:10.050Z,25.37
2023-04-17T08:18:37.780Z,26.10
2023-04-17T08:21:04.727Z,25.27
2023-04-17T08:23:31.440Z,23.83
2023-04-17T08:25:58.298Z,26.17
2023-04-17T08:28:25.172Z,27.07
2023-04-17T08:30:52.229Z,25.93
2023-04-17T08:33:18.812Z,25.10
2023-04-17T08:35:45.720Z,24.90
2023-04-17T08:38:14.442Z,24.77
2023-04-17T08:40:42.942Z,23.60
2023-04-17T08:43:19.576Z,23.40
2023-04-17T08:45:55.166Z,24.67
2023-04-17T08:48:23.692Z,26.50
2023-04-17T08:50:51.939Z,24.03
2023-04-17T08:53:19.105Z,23.07
2023-04-17T08:55:46.879Z,21.87
2023-04-17T08:58:14.672Z,22.80
2023-04-17T09:00:43.332Z,22.90
2023-04-17T09:03:14.309Z,21.47
2023-04-17T09:05:45.855Z,21.60
2023-04-17T09:08:17.702Z,22.27
2023-04-17T09:10:46.261Z,32.63
2023-04-17T09:13:25.007Z,24.70
2023-04-17T09:16:06.238Z,23.00
2023-04-17T09:18:34.608Z,25.30
2023-04-17T09:21:02.392Z,25.20
2023-04-17T09:23:31.141Z,25.20
2023-04-17T09:26:12.342Z,24.80
2023-04-17T09:28:39.986Z,22.73
2023-04-17T09:31:24.803Z,23.20
2023-04-17T09:34:08.459Z,28.73
2023-04-17T09:36:37.848Z,23.20
2023-04-17T09:39:17.950Z,24.07
2023-04-17T09:41:44.550Z,24.13
2023-04-17T09:44:12.412Z,24.50
2023-04-17T09:46:45.866Z,20.47
2023-04-17T09:49:15.578Z,20.20
2023-04-17T09:51:42.419Z,19.17
2023-04-17T09:54:15.052Z,20.03
2023-04-17T09:56:43.131Z,20.40
2023-04-17T09:59:10.370Z,18.57
2023-04-17T10:01:37.929Z,18.70
2023-04-17T10:04:05.352Z,18.97
2023-04-17T10:06:34.078Z,18.87
2023-04-17T10:09:01.136Z,19.40
2023-04-17T10:11:31.998Z,20.63
2023-04-17T10:14:19.634Z,19.10
2023-04-17T10:16:47.336Z,18.27
2023-04-17T10:19:34.128Z,16.83
2023-04-17T10:22:16.043Z,16.60
2023-04-17T10:24:43.093Z,16.00
2023-04-17T10:27:25.634Z,15.87
2023-04-17T10:29:54.064Z,16.20
2023-04-17T10:32:21.683Z,15.03
2023-04-17T10:34:48.351Z,14.70
2023-04-17T10:37:17.734Z,14.23
2023-04-17T10:40:01.078Z,13.27
2023-04-17T10:42:30.181Z,14.07
2023-04-17T10:45:01.748Z,13.10
2023-04-17T10:47:35.553Z,13.20
2023-04-17T10:50:04.027Z,14.10
2023-04-17T10:52:34.611Z,14.13
2023-04-17T10:55:04.255Z,12.87
2023-04-17T10:57:53.466Z,12.27
2023-04-17T11:00:28.279Z,11.30
2023-04-17T11:02:55.109Z,10.60
2023-04-17T11:05:23.957Z,11.80
2023-04-17T11:07:51.452Z,10.07
2023-04-17T11:10:20.201Z,10.70
2023-04-17T11:12:53.392Z,10.27
2023-04-17T11:15:31.224Z,11.10
2023-04-17T11:17:59.281Z,11.77
2023-04-17T11:20:27.971Z,10.43
2023-04-17T11:22:54.542Z,10.03
2023-04-17T11:25:27.002Z,9.87
2023-04-17T11:27:57.897Z,9.70
2023-04-17T11:30:42.181Z,9.57
2023-04-17T11:33:09.073Z,10.83
2023-04-17T11:35:37.392Z,9.40
2023-04-17T11:38:23.665Z,10.60
2023-04-17T11:40:55.576Z,9.70
2023-04-17T11:43:23.741Z,9.23
2023-04-17T11:45:52.770Z,10.20
2023-04-17T11:48:27.468Z,10.77
2023-04-17T11:51:01.088Z,9.37
2023-04-17T11:53:27.803Z,9.27
2023-04-17T11:56:14.475Z,8.90
2023-04-17T11:58:54.877Z,8.60
2023-04-17T12:01:26.332Z,8.20
2023-04-17T12:03:57.706Z,8.20
2023-04-17T12:06:35.313Z,8.03
2023-04-17T12:09:02.960Z,7.47
2023-04-17T12:11:31.273Z,7.03
2023-04-17T12:13:57.895Z,7.60
2023-04-17T12:16:25.846Z,7.17
2023-04-17T12:18:53.016Z,8.07
2023-04-17T12:21:23.832Z,8.20
2023-04-17T12:23:51.015Z,7.47
2023-04-17T12:26:17.556Z,7.30
2023-04-17T12:28:44.084Z,7.13
2023-04-17T12:31:10.698Z,7.67
2023-04-17T12:33:37.402Z,7.30
2023-04-17T12:36:05.223Z,7.27
2023-04-17T12:38:32.210Z,7.63
2023-04-17T12:40:58.701Z,7.60
2023-04-17T12:43:25.441Z,7.40
2023-04-17T12:45:55.030Z,8.57
2023-04-17T12:48:21.647Z,7.33
2023-04-17T12:50:48.162Z,7.13
2023-04-17T12:53:15.264Z,7.50
2023-04-17T12:55:44.182Z,7.43
2023-04-17T12:58:13.218Z,7.23
2023-04-17T13:00:43.495Z,7.27
2023-04-17T13:03:10.772Z,7.27
2023-04-17T13:05:37.676Z,6.90
2023-04-17T13:08:04.246Z,7.47
2023-04-17T13:10:31.534Z,7.23
2023-04-17T13:12:58.030Z,7.70
2023-04-17T13:15:24.452Z,6.87
2023-04-17T13:17:50.954Z,6.10
2023-04-17T13:20:17.574Z,6.70
2023-04-17T13:22:44.141Z,7.00
2023-04-17T13:25:10.616Z,6.70
2023-04-17T13:27:37.429Z,7.10
2023-04-17T13:30:04.251Z,6.33
2023-04-17T13:32:30.747Z,7.40
2023-04-17T13:34:58.745Z,7.00
2023-04-17T13:37:25.808Z,7.30
2023-04-17T13:39:52.589Z,7.43
2023-04-17T13:42:19.530Z,7.37
2023-04-17T13:44:46.125Z,7.50
2023-04-17T13:47:13.276Z,6.57
2023-04-17T13:49:39.755Z,6.97
2023-04-17T13:52:06.509Z,6.90
2023-04-17T13:54:33.084Z,7.40
2023-04-17T13:56:59.546Z,7.40
2023-04-17T13:59:26.194Z,6.73
2023-04-17T14:01:52.812Z,6.37
2023-04-17T14:04:19.666Z,7.30
2023-04-17T14:06:49.587Z,7.20
2023-04-17T14:09:17.038Z,6.83
2023-04-17T14:11:43.613Z,7.40
2023-04-17T14:14:12.519Z,7.30
2023-04-17T14:16:40.622Z,8.53
2023-04-17T14:19:13.969Z,7.10
2023-04-17T14:21:41.565Z,6.90
2023-04-17T14:24:08.621Z,7.33
2023-04-17T14:26:35.886Z,6.80
2023-04-17T14:29:02.370Z,6.10
2023-04-17T14:31:28.899Z,6.10
2023-04-17T14:33:55.438Z,6.63
2023-04-17T14:36:21.938Z,7.37
2023-04-17T14:38:51.170Z,7.63
2023-04-17T14:41:18.145Z,7.90
2023-04-17T14:43:44.887Z,8.00
2023-04-17T14:46:11.874Z,7.80
2023-04-17T14:48:47.952Z,7.60
2023-04-17T14:51:18.589Z,7.60
2023-04-17T14:53:45.225Z,6.93
2023-04-17T14:56:11.759Z,8.30
2023-04-17T14:58:38.246Z,7.60
2023-04-17T15:01:04.844Z,7.10
2023-04-17T15:03:32.281Z,6.57
2023-04-17T15:05:59.401Z,7.07
2023-04-17T15:08:25.832Z,7.50
2023-04-17T15:10:52.278Z,7.30
2023-04-17T15:13:18.731Z,6.50
2023-04-17T15:15:45.215Z,7.10
2023-04-17T15:18:11.694Z,7.90
2023-04-17T15:20:38.174Z,8.40
2023-04-17T15:23:05.740Z,8.33
2023-04-17T15:25:32.282Z,8.10
2023-04-17T15:27:58.697Z,8.80
2023-04-17T15:30:25.223Z,8.13
2023-04-17T15:32:51.668Z,8.20
2023-04-17T15:35:18.329Z,8.50
2023-04-17T15:37:44.853Z,7.30
2023-04-17T15:40:11.706Z,8.10
2023-04-17T15:42:38.195Z,7.47
2023-04-17T15:45:05.322Z,8.33
2023-04-17T15:47:31.818Z,7.60
2023-04-17T15:49:58.330Z,8.30
2023-04-17T15:52:24.908Z,7.63
2023-04-17T15:54:51.498Z,7.60
2023-04-17T15:57:17.975Z,7.00
2023-04-17T15:59:44.527Z,8.63
2023-04-17T16:02:12.973Z,7.87
2023-04-17T16:04:39.993Z,8.13
2023-04-17T16:07:06.651Z,7.87
2023-04-17T16:09:33.080Z,6.90
2023-04-17T16:11:59.691Z,7.50
2023-04-17T16:14:26.704Z,7.70
2023-04-17T16:16:53.275Z,7.60
2023-04-17T16:19:19.684Z,6.97
2023-04-17T16:21:46.102Z,7.07
2023-04-17T16:24:12.587Z,6.87
2023-04-17T16:26:39.018Z,8.07
2023-04-17T16:29:05.489Z,7.50
2023-04-17T16:31:32.113Z,7.00
2023-04-17T16:33:58.604Z,7.30
2023-04-17T16:36:27.226Z,7.53
2023-04-17T16:38:53.690Z,6.93
2023-04-17T16:41:20.435Z,6.97
2023-04-17T16:43:46.864Z,6.07
2023-04-17T16:46:22.184Z,7.23
2023-04-17T16:48:51.292Z,7.37
2023-04-17T16:51:20.193Z,7.43
2023-04-17T16:53:50.438Z,7.60
2023-04-17T16:56:16.994Z,6.37
2023-04-17T16:58:43.467Z,6.90
2023-04-17T17:01:09.976Z,6.80
2023-04-17T17:03:38.018Z,6.90
2023-04-17T17:06:06.965Z,6.67
2023-04-17T17:08:33.467Z,6.07
2023-04-17T17:11:00.173Z,6.30
2023-04-17T17:13:26.877Z,6.50
2023-04-17T17:15:53.381Z,6.50
2023-04-17T17:18:19.844Z,6.80
2023-04-17T17:20:48.935Z,7.67
2023-04-17T17:23:15.524Z,7.23
2023-04-17T17:25:41.963Z,6.50
2023-04-17T17:28:08.407Z,6.03
2023-04-17T17:30:34.880Z,6.50
2023-04-17T17:33:01.427Z,6.00
2023-04-17T17:35:27.980Z,6.67
2023-04-17T17:37:54.947Z,6.63
2023-04-17T17:40:21.452Z,6.77
2023-04-17T17:42:47.926Z,6.53
2023-04-17T17:45:14.527Z,5.87
2023-04-17T17:47:42.142Z,6.33
2023-04-17T17:50:08.963Z,6.10
2023-04-17T17:52:35.556Z,6.47
2023-04-17T17:55:02.149Z,6.50
2023-04-17T17:57:38.431Z,7.60
2023-04-17T18:00:09.670Z,6.57
2023-04-17T18:02:36.334Z,6.63
2023-04-17T18:05:03.180Z,6.30
2023-04-17T18:07:30.264Z,6.40
2023-04-17T18:09:56.661Z,6.67
2023-04-17T18:12:23.145Z,6.33
2023-04-17T18:14:49.616Z,5.63
2023-04-17T18:17:16.105Z,5.73
2023-04-17T18:19:43.502Z,6.60
2023-04-17T18:22:10.212Z,6.40
2023-04-17T18:24:36.798Z,6.23
2023-04-17T18:27:03.345Z,6.93
2023-04-17T18:29:30.226Z,6.20
2023-04-17T18:31:56.771Z,6.70
2023-04-17T18:34:23.382Z,6.80
2023-04-17T18:36:50.960Z,6.93
2023-04-17T18:39:19.843Z,6.83
2023-04-17T18:41:49.344Z,7.30
2023-04-17T18:44:16.127Z,6.63
2023-04-17T18:46:43.698Z,6.90
2023-04-17T18:49:10.128Z,6.23
2023-04-17T18:51:37.735Z,6.93
2023-04-17T18:54:04.908Z,7.30
2023-04-17T18:56:31.412Z,7.37
2023-04-17T18:58:57.892Z,7.00
2023-04-17T19:01:24.318Z,7.03
2023-04-17T19:03:52.962Z,6.57
2023-04-17T19:06:19.462Z,6.83
2023-04-17T19:08:46.030Z,7.27
2023-04-17T19:11:12.708Z,7.47
2023-04-17T19:13:39.847Z,7.07
2023-04-17T19:16:06.410Z,6.37
2023-04-17T19:18:32.972Z,5.93
2023-04-17T19:20:59.445Z,7.23
2023-04-17T19:23:26.013Z,7.47
2023-04-17T19:25:55.156Z,7.40
2023-04-17T19:28:22.574Z,7.23
2023-04-17T19:30:49.097Z,7.23
2023-04-17T19:33:15.558Z,7.07
2023-04-17T19:35:42.006Z,6.93
2023-04-17T19:38:08.453Z,7.87
2023-04-17T19:40:34.980Z,8.60
2023-04-17T19:43:02.215Z,8.50
2023-04-17T19:45:29.227Z,8.10
2023-04-17T19:47:57.198Z,8.20
2023-04-17T19:50:27.406Z,7.90
2023-04-17T19:52:59.666Z,7.50
2023-04-17T19:55:27.424Z,7.70
2023-04-17T19:57:56.551Z,8.40
2023-04-17T20:00:24.170Z,7.43
2023-04-17T20:02:51.097Z,7.77
2023-04-17T20:05:18.874Z,7.47
2023-04-17T20:07:45.975Z,8.33
2023-04-17T20:10:12.993Z,8.10
2023-04-17T20:12:39.569Z,9.23
2023-04-17T20:15:06.580Z,8.73
2023-04-17T20:17:33.080Z,8.63
2023-04-17T20:19:59.553Z,8.83
2023-04-17T20:22:26.129Z,8.10
2023-04-17T20:24:52.670Z,7.47
2023-04-17T20:27:19.117Z,8.60
2023-04-17T20:29:45.640Z,8.17
2023-04-17T20:32:12.196Z,8.10
2023-04-17T20:34:38.636Z,7.60
2023-04-17T20:37:05.132Z,8.47
2023-04-17T20:39:32.090Z,7.63
2023-04-17T20:41:58.523Z,7.60
2023-04-17T20:44:25.017Z,8.10
2023-04-17T20:46:51.575Z,8.57
2023-04-17T20:49:18.012Z,7.77
2023-04-17T20:51:45.023Z,9.30
2023-04-17T20:54:11.738Z,7.70
2023-04-17T20:56:38.441Z,12.70
2023-04-17T20:59:04.890Z,9.10
2023-04-17T21:01:31.533Z,7.90
2023-04-17T21:03:58.367Z,9.50
2023-04-17T21:06:25.948Z,7.90
2023-04-17T21:08:52.786Z,8.63
2023-04-17T21:11:19.995Z,8.07
2023-04-17T21:13:46.466Z,8.10
2023-04-17T21:16:13.706Z,9.37
2023-04-17T21:18:40.429Z,8.57
2023-04-17T21:21:06.928Z,9.47
2023-04-17T21:23:34.487Z,10.30
2023-04-17T21:26:01.116Z,11.90
2023-04-17T21:28:27.551Z,9.30
2023-04-17T21:30:55.168Z,9.50
2023-04-17T21:33:21.658Z,9.97
2023-04-17T21:35:48.110Z,10.50
2023-04-17T21:38:14.580Z,9.43
2023-04-17T21:40:50.621Z,9.07
2023-04-17T21:43:17.829Z,10.17
2023-04-17T21:45:44.328Z,10.10
2023-04-17T21:48:10.920Z,10.17
2023-04-17T21:50:37.393Z,9.60
2023-04-17T21:53:03.829Z,9.33
2023-04-17T21:55:30.326Z,10.17
2023-04-17T21:57:56.747Z,10.07
2023-04-17T22:00:23.678Z,9.63
2023-04-17T22:02:50.245Z,9.13
2023-04-17T22:05:17.075Z,9.93
2023-04-17T22:07:54.319Z,9.60
2023-04-17T22:10:22.031Z,10.20
2023-04-17T22:12:48.572Z,9.70
2023-04-17T22:15:15.068Z,10.30
2023-04-17T22:17:41.509Z,9.70
2023-04-17T22:20:08.736Z,10.20
2023-04-17T22:22:35.373Z,10.20
2023-04-17T22:25:01.941Z,9.63
2023-04-17T22:27:29.126Z,9.80
2023-04-17T22:29:56.292Z,10.20
2023-04-17T22:32:22.808Z,10.10
2023-04-17T22:34:50.256Z,10.33
2023-04-17T22:37:16.756Z,9.03
2023-04-17T22:39:43.185Z,9.20
2023-04-17T22:42:09.802Z,9.10
2023-04-17T22:44:36.474Z,8.63
2023-04-17T22:47:03.412Z,9.63
2023-04-17T22:49:30.731Z,9.10
2023-04-17T22:51:57.173Z,9.57
2023-04-17T22:54:23.638Z,9.93
2023-04-17T22:56:50.256Z,10.43
2023-04-17T22:59:16.723Z,9.07
2023-04-17T23:01:43.186Z,9.23
2023-04-17T23:04:10.289Z,9.83
2023-04-17T23:06:36.821Z,9.30
2023-04-17T23:09:04.783Z,9.03
2023-04-17T23:11:32.630Z,8.30
2023-04-17T23:13:59.379Z,9.73
2023-04-17T23:16:26.161Z,8.80
2023-04-17T23:18:52.796Z,8.47
2023-04-17T23:21:19.391Z,8.20
2023-04-17T23:23:48.091Z,9.07
2023-04-17T23:26:15.369Z,8.30
2023-04-17T23:28:42.064Z,9.10
2023-04-17T23:31:08.569Z,7.83
2023-04-17T23:33:35.544Z,8.67
2023-04-17T23:36:02.344Z,8.73
2023-04-17T23:38:28.813Z,8.17
2023-04-17T23:40:55.393Z,7.57
2023-04-17T23:43:21.837Z,8.00
2023-04-17T23:45:48.325Z,7.93
2023-04-17T23:48:14.846Z,8.90
2023-04-17T23:50:41.399Z,7.93
2023-04-17T23:53:07.875Z,8.07
2023-04-17T23:55:34.559Z,7.97
2023-04-17T23:58:01.002Z,7.03
